CheckWX is a tool to help pilots better visualize weather data.  It is not intended as a substitute for an official pre-flight weather briefing.

17:25:22 UTC

KHRX METAR
Hereford Municipal Airport
Hereford, Texas, USA
Current

30 mins ago

KHRX 181655Z AUTO 21009G16KT 10SM CLR 33/15 A2998 RMK AO2 T03270148
Observed
Jul-18 @ 16:55 UTC
Wind
  • 210° at 9 KTS
  • Gusting to 16 KTS
Visibility
10 SM
Flight Rules
VFR
Cloud Levels
  • Clear skies
Temperature
33°C / 91°F
Dewpoint
15°C / 59°F
Humidity
34%
Altimeter
29.98" Hg
Pressure
1015.22 hPa
Previous

50 mins ago

KHRX 181635Z AUTO 21012G15KT 10SM CLR 33/15 A2999 RMK AO2 T03250148
Observed
Jul-18 @ 16:35 UTC
Wind
  • 210° at 12 KTS
  • Gusting to 15 KTS
Visibility
10 SM
Flight Rules
VFR
Cloud Levels
  • Clear skies
Temperature
33°C / 91°F
Dewpoint
15°C / 59°F
Humidity
34%
Altimeter
29.99" Hg
Pressure
1015.62 hPa
Previous

1 hour ago

KHRX 181615Z AUTO 22013G16KT 10SM CLR 32/15 A2999 RMK AO2 T03170148
Observed
Jul-18 @ 16:15 UTC
Wind
  • 220° at 13 KTS
  • Gusting to 16 KTS
Visibility
10 SM
Flight Rules
VFR
Cloud Levels
  • Clear skies
Temperature
32°C / 90°F
Dewpoint
15°C / 59°F
Humidity
36%
Altimeter
29.99" Hg
Pressure
1015.62 hPa